^^
Saratoga-Weather Station Historical Data
Daily Summary for January 4, 2020 Units:  Both    English   Metric
Daily Weekly Monthly Yearly Custom
  High: Low: Average:
Temperature: 45 °F /  7.2 °C 36.9 °F /  2.7 °C 40.8 °F /  4.9 °C
Dew Point: 42.4 °F /  5.8 °C 35.6 °F /  2 °C 38.3 °F /  3.5 °C
Humidity: 96% 87% 91%
Wind Speed: 13mph /  20.9km/h - 2.2mph /  3.5km/h
Wind Gust: 18mph /  29km/h - -
Wind- - West
Pressure: 30.6 in /  1035.6 hPa 30.4 in /  1027.8 hPa -
Precipitation: 0 in /  0.0 mm    
Historical Graphs
 
 
Tabular Data for January 4, 2020
Time Temperature Dew Point Pressure Wind Wind Speed Wind Gust Humidity Rainfall Rate (Hourly) solar
00:01 45 °F /  7.2 °C 42.4 °F /  5.8 °C 30.4in /  1027.8hPa Calm   1mph /  1.6km/h 91% 0in /  0.0mm 0 W/m2
00:06 44.8 °F /  7.1 °C 42.3 °F /  5.7 °C 30.4in /  1027.8hPa Calm     91% 0in /  0.0mm 0 W/m2
00:11 44.6 °F /  7 °C 42.1 °F /  5.6 °C 30.4in /  1028.1hPa Calm     91% 0in /  0.0mm 0 W/m2
00:16 44.4 °F /  6.9 °C 41.9 °F /  5.5 °C 30.4in /  1028.1hPa Calm   4mph /  6.4km/h 91% 0in /  0.0mm 0 W/m2
00:21 44.4 °F /  6.9 °C 41.9 °F /  5.5 °C 30.4in /  1028.1hPa Calm     91% 0in /  0.0mm 0 W/m2
00:26 44.2 °F /  6.8 °C 41.7 °F /  5.4 °C 30.4in /  1028.1hPa Calm   1mph /  1.6km/h 91% 0in /  0.0mm 0 W/m2
00:31 44.2 °F /  6.8 °C 41.7 °F /  5.4 °C 30.4in /  1028.5hPa Calm     91% 0in /  0.0mm 0 W/m2
00:36 44.1 °F /  6.7 °C 41.5 °F /  5.3 °C 30.4in /  1028.8hPa Calm   1mph /  1.6km/h 91% 0in /  0.0mm 0 W/m2
00:41 43.9 °F /  6.6 °C 41.4 °F /  5.2 °C 30.4in /  1028.8hPa WNW 0.9mph /  1.4km/h 3mph /  4.8km/h 91% 0in /  0.0mm 0 W/m2
00:46 43.7 °F /  6.5 °C 41 °F /  5 °C 30.4in /  1028.8hPa Calm   3mph /  4.8km/h 90% 0in /  0.0mm 0 W/m2
00:51 43.5 °F /  6.4 °C 40.8 °F /  4.9 °C 30.4in /  1028.8hPa Calm     90% 0in /  0.0mm 0 W/m2
00:56 43.3 °F /  6.3 °C 40.6 °F /  4.8 °C 30.4in /  1028.8hPa Calm     90% 0in /  0.0mm 0 W/m2
01:01 43.3 °F /  6.3 °C 40.6 °F /  4.8 °C 30.4in /  1028.8hPa Calm     90% 0in /  0.0mm 0 W/m2
01:06 43.2 °F /  6.2 °C 40.5 °F /  4.7 °C 30.4in /  1028.8hPa Calm     90% 0in /  0.0mm 0 W/m2
01:11 43 °F /  6.1 °C 40.3 °F /  4.6 °C 30.4in /  1028.8hPa Calm   2mph /  3.2km/h 90% 0in /  0.0mm 0 W/m2
01:16 43 °F /  6.1 °C 40.3 °F /  4.6 °C 30.4in /  1028.8hPa Calm   1mph /  1.6km/h 90% 0in /  0.0mm 0 W/m2
01:21 42.6 °F /  5.9 °C 39.9 °F /  4.4 °C 30.4in /  1029.1hPa Calm     90% 0in /  0.0mm 0 W/m2
01:26 42.6 °F /  5.9 °C 39.9 °F /  4.4 °C 30.4in /  1029.1hPa Calm     90% 0in /  0.0mm 0 W/m2
01:31 42.4 °F /  5.8 °C 39.7 °F /  4.3 °C 30.4in /  1029.1hPa Calm     90% 0in /  0.0mm 0 W/m2
01:36 42.3 °F /  5.7 °C 39.6 °F /  4.2 °C 30.4in /  1029.1hPa Calm     90% 0in /  0.0mm 0 W/m2
01:42 42.1 °F /  5.6 °C 39.6 °F /  4.2 °C 30.4in /  1029.5hPa Calm     91% 0in /  0.0mm 0 W/m2
01:47 41.9 °F /  5.5 °C 39.4 °F /  4.1 °C 30.4in /  1029.5hPa Calm     91% 0in /  0.0mm 0 W/m2
01:52 41.5 °F /  5.3 °C 39.2 °F /  4 °C 30.4in /  1029.5hPa Calm     91% 0in /  0.0mm 0 W/m2
01:57 41.4 °F /  5.2 °C 39 °F /  3.9 °C 30.4in /  1029.5hPa Calm     91% 0in /  0.0mm 0 W/m2
02:02 41.2 °F /  5.1 °C 39 °F /  3.9 °C 30.4in /  1029.5hPa Calm     92% 0in /  0.0mm 0 W/m2
02:07 41 °F /  5 °C 38.8 °F /  3.8 °C 30.4in /  1029.5hPa Calm     92% 0in /  0.0mm 0 W/m2
02:12 41 °F /  5 °C 38.8 °F /  3.8 °C 30.4in /  1029.5hPa Calm     92% 0in /  0.0mm 0 W/m2
02:17 41 °F /  5 °C 38.8 °F /  3.8 °C 30.4in /  1029.5hPa Calm   3mph /  4.8km/h 92% 0in /  0.0mm 0 W/m2
02:22 40.8 °F /  4.9 °C 38.7 °F /  3.7 °C 30.4in /  1029.5hPa Calm     92% 0in /  0.0mm 0 W/m2
02:27 40.8 °F /  4.9 °C 38.7 °F /  3.7 °C 30.4in /  1029.5hPa WSW 2mph /  3.2km/h 2mph /  3.2km/h 92% 0in /  0.0mm 0 W/m2
02:32 40.8 °F /  4.9 °C 38.7 °F /  3.7 °C 30.4in /  1029.5hPa Calm     92% 0in /  0.0mm 0 W/m2
02:37 40.8 °F /  4.9 °C 38.7 °F /  3.7 °C 30.4in /  1029.8hPa Calm     92% 0in /  0.0mm 0 W/m2
02:42 40.6 °F /  4.8 °C 38.5 °F /  3.6 °C 30.4in /  1029.8hPa Calm     92% 0in /  0.0mm 0 W/m2
02:47 40.6 °F /  4.8 °C 38.3 °F /  3.5 °C 30.4in /  1029.8hPa Calm     91% 0in /  0.0mm 0 W/m2
02:52 40.6 °F /  4.8 °C 38.3 °F /  3.5 °C 30.4in /  1029.8hPa Calm   4mph /  6.4km/h 91% 0in /  0.0mm 0 W/m2
02:57 40.5 °F /  4.7 °C 38.1 °F /  3.4 °C 30.4in /  1029.8hPa Calm     91% 0in /  0.0mm 0 W/m2
03:02 40.5 °F /  4.7 °C 38.1 °F /  3.4 °C 30.4in /  1029.8hPa Calm     91% 0in /  0.0mm 0 W/m2
03:07 40.5 °F /  4.7 °C 38.1 °F /  3.4 °C 30.4in /  1029.8hPa Calm     91% 0in /  0.0mm 0 W/m2
03:12 40.5 °F /  4.7 °C 38.1 °F /  3.4 °C 30.4in /  1030.1hPa Calm     91% 0in /  0.0mm 0 W/m2
03:17 40.5 °F /  4.7 °C 38.1 °F /  3.4 °C 30.4in /  1030.1hPa Calm     91% 0in /  0.0mm 0 W/m2
03:23 40.5 °F /  4.7 °C 38.1 °F /  3.4 °C 30.4in /  1030.1hPa Calm     91% 0in /  0.0mm 0 W/m2
03:28 40.6 °F /  4.8 °C 38.3 °F /  3.5 °C 30.4in /  1030.1hPa Calm   2mph /  3.2km/h 91% 0in /  0.0mm 0 W/m2
03:33 40.6 °F /  4.8 °C 38.3 °F /  3.5 °C 30.4in /  1030.1hPa Calm     91% 0in /  0.0mm 0 W/m2
03:38 40.6 °F /  4.8 °C 38.3 °F /  3.5 °C 30.4in /  1030.1hPa Calm   2mph /  3.2km/h 91% 0in /  0.0mm 0 W/m2
03:43 40.5 °F /  4.7 °C 37.8 °F /  3.2 °C 30.4in /  1030.1hPa Calm     90% 0in /  0.0mm 0 W/m2
03:48 40.5 °F /  4.7 °C 37.8 °F /  3.2 °C 30.4in /  1030.5hPa Calm   1mph /  1.6km/h 90% 0in /  0.0mm 0 W/m2
03:53 40.1 °F /  4.5 °C 37.8 °F /  3.2 °C 30.4in /  1030.5hPa Calm     91% 0in /  0.0mm 0 W/m2
03:58 39.9 °F /  4.4 °C 37.6 °F /  3.1 °C 30.4in /  1030.5hPa Calm     91% 0in /  0.0mm 0 W/m2
04:03 39.9 °F /  4.4 °C 37.6 °F /  3.1 °C 30.4in /  1030.5hPa Calm   1mph /  1.6km/h 91% 0in /  0.0mm 0 W/m2
04:08 39.9 °F /  4.4 °C 37.6 °F /  3.1 °C 30.4in /  1030.5hPa Calm     91% 0in /  0.0mm 0 W/m2
04:13 40.1 °F /  4.5 °C 37.8 °F /  3.2 °C 30.4in /  1030.5hPa Calm     91% 0in /  0.0mm 0 W/m2
04:18 40.1 °F /  4.5 °C 37.8 °F /  3.2 °C 30.4in /  1030.5hPa Calm     91% 0in /  0.0mm 0 W/m2
04:23 40.1 °F /  4.5 °C 37.8 °F /  3.2 °C 30.4in /  1030.5hPa Calm   2mph /  3.2km/h 91% 0in /  0.0mm 0 W/m2
04:28 40.3 °F /  4.6 °C 38.1 °F /  3.4 °C 30.4in /  1030.5hPa Calm     92% 0in /  0.0mm 0 W/m2
04:33 40.5 °F /  4.7 °C 38.3 °F /  3.5 °C 30.4in /  1030.5hPa Calm     92% 0in /  0.0mm 0 W/m2
04:38 40.6 °F /  4.8 °C 38.5 °F /  3.6 °C 30.4in /  1030.5hPa Calm   2mph /  3.2km/h 92% 0in /  0.0mm 0 W/m2
04:43 40.6 °F /  4.8 °C 38.5 °F /  3.6 °C 30.4in /  1030.5hPa Calm     92% 0in /  0.0mm 0 W/m2
04:48 40.6 °F /  4.8 °C 38.5 °F /  3.6 °C 30.4in /  1030.1hPa Calm     92% 0in /  0.0mm 0 W/m2
04:53 40.5 °F /  4.7 °C 38.1 °F /  3.4 °C 30.4in /  1030.5hPa Calm   10mph /  16.1km/h 91% 0in /  0.0mm 0 W/m2
04:58 40.3 °F /  4.6 °C 37.9 °F /  3.3 °C 30.4in /  1030.5hPa Calm     91% 0in /  0.0mm 0 W/m2
05:03 40.3 °F /  4.6 °C 37.9 °F /  3.3 °C 30.4in /  1030.5hPa Calm   8mph /  12.9km/h 91% 0in /  0.0mm 0 W/m2
05:08 39.9 °F /  4.4 °C 37.6 °F /  3.1 °C 30.4in /  1030.5hPa Calm     91% 0in /  0.0mm 0 W/m2
05:13 39.7 °F /  4.3 °C 37.6 °F /  3.1 °C 30.4in /  1030.5hPa Calm   3mph /  4.8km/h 92% 0in /  0.0mm 0 W/m2
05:18 39.7 °F /  4.3 °C 37.6 °F /  3.1 °C 30.4in /  1030.5hPa Calm   4mph /  6.4km/h 92% 0in /  0.0mm 0 W/m2
05:23 39.6 °F /  4.2 °C 37.4 °F /  3 °C 30.4in /  1030.5hPa Calm   1mph /  1.6km/h 92% 0in /  0.0mm 0 W/m2
05:28 39.4 °F /  4.1 °C 37.2 °F /  2.9 °C 30.4in /  1030.5hPa Calm   1mph /  1.6km/h 92% 0in /  0.0mm 0 W/m2
05:33 39.4 °F /  4.1 °C 37.2 °F /  2.9 °C 30.4in /  1030.8hPa Calm   3mph /  4.8km/h 92% 0in /  0.0mm 0 W/m2
05:38 39.4 °F /  4.1 °C 37.6 °F /  3.1 °C 30.5in /  1031.2hPa Calm     93% 0in /  0.0mm 0 W/m2
05:43 39.2 °F /  4 °C 37.4 °F /  3 °C 30.5in /  1031.2hPa Calm     93% 0in /  0.0mm 0 W/m2
05:48 39 °F /  3.9 °C 37.2 °F /  2.9 °C 30.5in /  1031.2hPa Calm     93% 0in /  0.0mm 0 W/m2
05:53 38.8 °F /  3.8 °C 37 °F /  2.8 °C 30.5in /  1031.2hPa Calm     93% 0in /  0.0mm 0 W/m2
05:58 38.7 °F /  3.7 °C 36.9 °F /  2.7 °C 30.5in /  1031.2hPa Calm   1mph /  1.6km/h 93% 0in /  0.0mm 0 W/m2
06:03 38.5 °F /  3.6 °C 36.7 °F /  2.6 °C 30.5in /  1031.2hPa Calm     93% 0in /  0.0mm 0 W/m2
06:08 38.3 °F /  3.5 °C 36.5 °F /  2.5 °C 30.5in /  1031.5hPa Calm     93% 0in /  0.0mm 0 W/m2
06:13 37.9 °F /  3.3 °C 36.3 °F /  2.4 °C 30.5in /  1031.5hPa Calm     94% 0in /  0.0mm 0 W/m2
06:18 37.8 °F /  3.2 °C 36.1 °F /  2.3 °C 30.5in /  1031.2hPa Calm   1mph /  1.6km/h 94% 0in /  0.0mm 0 W/m2
06:23 37.6 °F /  3.1 °C 36 °F /  2.2 °C 30.5in /  1031.2hPa Calm     94% 0in /  0.0mm 0 W/m2
06:28 37.6 °F /  3.1 °C 36 °F /  2.2 °C 30.5in /  1031.5hPa Calm   1mph /  1.6km/h 94% 0in /  0.0mm 0 W/m2
06:33 37.4 °F /  3 °C 35.8 °F /  2.1 °C 30.5in /  1031.5hPa Calm     94% 0in /  0.0mm 0 W/m2
06:38 37.2 °F /  2.9 °C 36 °F /  2.2 °C 30.5in /  1031.5hPa Calm     95% 0in /  0.0mm 0 W/m2
06:43 37 °F /  2.8 °C 35.8 °F /  2.1 °C 30.5in /  1031.5hPa Calm   4mph /  6.4km/h 95% 0in /  0.0mm 0 W/m2
06:48 37 °F /  2.8 °C 35.8 °F /  2.1 °C 30.5in /  1031.5hPa Calm     95% 0in /  0.0mm 0 W/m2
06:53 37 °F /  2.8 °C 35.8 °F /  2.1 °C 30.5in /  1031.8hPa Calm     95% 0in /  0.0mm 0 W/m2
06:58 37 °F /  2.8 °C 35.8 °F /  2.1 °C 30.5in /  1031.8hPa Calm   8mph /  12.9km/h 95% 0in /  0.0mm 0 W/m2
07:03 37 °F /  2.8 °C 35.8 °F /  2.1 °C 30.5in /  1031.5hPa Calm     95% 0in /  0.0mm 0 W/m2
07:09 37 °F /  2.8 °C 35.8 °F /  2.1 °C 30.5in /  1031.8hPa Calm   6mph /  9.7km/h 95% 0in /  0.0mm 0 W/m2
07:14 36.9 °F /  2.7 °C 35.6 °F /  2 °C 30.5in /  1031.8hPa Calm     95% 0in /  0.0mm 0 W/m2
07:19 36.9 °F /  2.7 °C 35.6 °F /  2 °C 30.5in /  1031.8hPa Calm   4mph /  6.4km/h 95% 0in /  0.0mm 0 W/m2
07:24 36.9 °F /  2.7 °C 35.6 °F /  2 °C 30.5in /  1031.8hPa Calm     95% 0in /  0.0mm 0 W/m2
07:29 37 °F /  2.8 °C 35.8 °F /  2.1 °C 30.5in /  1031.8hPa Calm     95% 0in /  0.0mm 0 W/m2
07:34 37 °F /  2.8 °C 35.8 °F /  2.1 °C 30.5in /  1031.8hPa Calm   3mph /  4.8km/h 95% 0in /  0.0mm 0 W/m2
07:39 37 °F /  2.8 °C 35.8 °F /  2.1 °C 30.5in /  1032.2hPa Calm     95% 0in /  0.0mm 0 W/m2
07:44 37 °F /  2.8 °C 36 °F /  2.2 °C 30.5in /  1032.2hPa Calm   8mph /  12.9km/h 96% 0in /  0.0mm 0 W/m2
07:49 37.2 °F /  2.9 °C 36.1 °F /  2.3 °C 30.5in /  1032.2hPa Calm   2mph /  3.2km/h 96% 0in /  0.0mm 0 W/m2
07:54 37.2 °F /  2.9 °C 36.1 °F /  2.3 °C 30.5in /  1032.2hPa Calm     96% 0in /  0.0mm 0 W/m2
07:59 37.2 °F /  2.9 °C 36 °F /  2.2 °C 30.5in /  1032.2hPa Calm   1mph /  1.6km/h 95% 0in /  0.0mm 0 W/m2
08:04 37.2 °F /  2.9 °C 36 °F /  2.2 °C 30.5in /  1032.2hPa Calm   2mph /  3.2km/h 95% 0in /  0.0mm 0 W/m2
08:09 37.2 °F /  2.9 °C 36 °F /  2.2 °C 30.5in /  1032.2hPa Calm     95% 0in /  0.0mm 0 W/m2
08:14 37.2 °F /  2.9 °C 36 °F /  2.2 °C 30.5in /  1032.2hPa Calm     95% 0in /  0.0mm 0 W/m2
08:19 37.2 °F /  2.9 °C 36 °F /  2.2 °C 30.5in /  1031.8hPa Calm     95% 0in /  0.0mm 0 W/m2
08:24 37.2 °F /  2.9 °C 36 °F /  2.2 °C 30.5in /  1031.8hPa Calm     95% 0in /  0.0mm 0 W/m2
08:29 37 °F /  2.8 °C 35.8 °F /  2.1 °C 30.5in /  1032.2hPa Calm     95% 0in /  0.0mm 0 W/m2
08:34 37 °F /  2.8 °C 35.8 °F /  2.1 °C 30.5in /  1032.2hPa Calm   3mph /  4.8km/h 95% 0in /  0.0mm 0 W/m2
08:39 37.2 °F /  2.9 °C 36 °F /  2.2 °C 30.5in /  1031.8hPa SW 5mph /  8km/h 5mph /  8km/h 95% 0in /  0.0mm 0 W/m2
08:44 37.2 °F /  2.9 °C 36 °F /  2.2 °C 30.5in /  1032.2hPa SW 0.9mph /  1.4km/h 6mph /  9.7km/h 95% 0in /  0.0mm 5 W/m2
08:49 37.4 °F /  3 °C 36.1 °F /  2.3 °C 30.5in /  1032.2hPa Calm     95% 0in /  0.0mm 7 W/m2
08:54 37.6 °F /  3.1 °C 36.3 °F /  2.4 °C 30.5in /  1032.2hPa Calm   6mph /  9.7km/h 95% 0in /  0.0mm 9 W/m2
08:59 37.8 °F /  3.2 °C 36.5 °F /  2.5 °C 30.5in /  1032.5hPa Calm   3mph /  4.8km/h 95% 0in /  0.0mm 12 W/m2
09:04 37.8 °F /  3.2 °C 36.5 °F /  2.5 °C 30.5in /  1032.5hPa Calm   10mph /  16.1km/h 95% 0in /  0.0mm 14 W/m2
09:09 37.9 °F /  3.3 °C 36.7 °F /  2.6 °C 30.5in /  1032.5hPa Calm   7mph /  11.3km/h 95% 0in /  0.0mm 11 W/m2
09:14 38.1 °F /  3.4 °C 36.5 °F /  2.5 °C 30.5in /  1032.5hPa Calm   8mph /  12.9km/h 94% 0in /  0.0mm 16 W/m2
09:19 38.1 °F /  3.4 °C 36.5 °F /  2.5 °C 30.5in /  1032.8hPa WSW 4mph /  6.4km/h 6mph /  9.7km/h 94% 0in /  0.0mm 16 W/m2
09:24 38.1 °F /  3.4 °C 36.5 °F /  2.5 °C 30.5in /  1032.8hPa Calm     94% 0in /  0.0mm 19 W/m2
09:29 38.1 °F /  3.4 °C 36.5 °F /  2.5 °C 30.5in /  1032.8hPa WSW 0.9mph /  1.4km/h 2mph /  3.2km/h 94% 0in /  0.0mm 18 W/m2
09:34 38.3 °F /  3.5 °C 36.7 °F /  2.6 °C 30.5in /  1032.8hPa Calm   4mph /  6.4km/h 94% 0in /  0.0mm 16 W/m2
09:39 38.5 °F /  3.6 °C 36.9 °F /  2.7 °C 30.5in /  1032.8hPa Calm     94% 0in /  0.0mm 16 W/m2
09:44 38.5 °F /  3.6 °C 36.9 °F /  2.7 °C 30.5in /  1032.8hPa WNW 0.9mph /  1.4km/h 2mph /  3.2km/h 94% 0in /  0.0mm 16 W/m2
09:49 38.5 °F /  3.6 °C 36.9 °F /  2.7 °C 30.5in /  1032.8hPa Calm     94% 0in /  0.0mm 19 W/m2
09:54 38.5 °F /  3.6 °C 36.9 °F /  2.7 °C 30.5in /  1032.8hPa Calm   1mph /  1.6km/h 94% 0in /  0.0mm 30 W/m2
09:59 38.5 °F /  3.6 °C 36.9 °F /  2.7 °C 30.5in /  1032.8hPa Calm     94% 0in /  0.0mm 25 W/m2
10:05 38.5 °F /  3.6 °C 36.9 °F /  2.7 °C 30.5in /  1032.8hPa Calm     94% 0in /  0.0mm 39 W/m2
10:10 38.7 °F /  3.7 °C 37 °F /  2.8 °C 30.5in /  1032.8hPa Calm     94% 0in /  0.0mm 44 W/m2
10:15 38.7 °F /  3.7 °C 37 °F /  2.8 °C 30.5in /  1032.8hPa Calm     94% 0in /  0.0mm 65 W/m2
10:20 38.7 °F /  3.7 °C 37 °F /  2.8 °C 30.5in /  1032.8hPa Calm   4mph /  6.4km/h 94% 0in /  0.0mm 77 W/m2
10:25 38.7 °F /  3.7 °C 37 °F /  2.8 °C 30.5in /  1032.8hPa Calm     94% 0in /  0.0mm 69 W/m2
10:30 38.8 °F /  3.8 °C 37.2 °F /  2.9 °C 30.5in /  1032.8hPa Calm   4mph /  6.4km/h 94% 0in /  0.0mm 62 W/m2
10:35 38.8 °F /  3.8 °C 37.2 °F /  2.9 °C 30.5in /  1032.8hPa Calm     94% 0in /  0.0mm 60 W/m2
10:40 38.8 °F /  3.8 °C 37 °F /  2.8 °C 30.5in /  1032.5hPa Calm   5mph /  8km/h 93% 0in /  0.0mm 47 W/m2
10:45 38.8 °F /  3.8 °C 37.2 °F /  2.9 °C 30.5in /  1032.5hPa Calm     94% 0in /  0.0mm 100 W/m2
10:50 39 °F /  3.9 °C 37.4 °F /  3 °C 30.5in /  1032.5hPa Calm   4mph /  6.4km/h 94% 0in /  0.0mm 84 W/m2
10:55 39.2 °F /  4 °C 37.6 °F /  3.1 °C 30.5in /  1032.5hPa Calm     94% 0in /  0.0mm 88 W/m2
11:00 39.4 °F /  4.1 °C 37.8 °F /  3.2 °C 30.5in /  1032.5hPa Calm   4mph /  6.4km/h 94% 0in /  0.0mm 67 W/m2
11:05 39.6 °F /  4.2 °C 37.8 °F /  3.2 °C 30.5in /  1032.5hPa Calm   9mph /  14.5km/h 93% 0in /  0.0mm 84 W/m2
11:10 39.6 °F /  4.2 °C 37.8 °F /  3.2 °C 30.5in /  1032.5hPa Calm     93% 0in /  0.0mm 81 W/m2
11:15 39.6 °F /  4.2 °C 37.8 °F /  3.2 °C 30.5in /  1032.5hPa WNW 10.1mph /  16.3km/h 12mph /  19.3km/h 93% 0in /  0.0mm 65 W/m2
11:20 39.6 °F /  4.2 °C 37.8 °F /  3.2 °C 30.5in /  1032.5hPa WNW 2mph /  3.2km/h 2mph /  3.2km/h 93% 0in /  0.0mm 51 W/m2
11:25 39.6 °F /  4.2 °C 37.4 °F /  3 °C 30.5in /  1032.8hPa Calm   12mph /  19.3km/h 92% 0in /  0.0mm 67 W/m2
11:30 39.4 °F /  4.1 °C 37.2 °F /  2.9 °C 30.5in /  1032.5hPa Calm   12mph /  19.3km/h 92% 0in /  0.0mm 102 W/m2
11:35 39.6 °F /  4.2 °C 37.4 °F /  3 °C 30.5in /  1032.5hPa Calm   6mph /  9.7km/h 92% 0in /  0.0mm 155 W/m2
11:40 39.7 °F /  4.3 °C 37.6 °F /  3.1 °C 30.5in /  1032.5hPa Calm   11mph /  17.7km/h 92% 0in /  0.0mm 86 W/m2
11:45 39.7 °F /  4.3 °C 37.6 °F /  3.1 °C 30.5in /  1032.5hPa WSW 4mph /  6.4km/h 7mph /  11.3km/h 92% 0in /  0.0mm 63 W/m2
11:50 39.9 °F /  4.4 °C 37.8 °F /  3.2 °C 30.5in /  1032.5hPa Calm     92% 0in /  0.0mm 90 W/m2
11:56 40.1 °F /  4.5 °C 37.9 °F /  3.3 °C 30.5in /  1032.8hPa West 4mph /  6.4km/h 8mph /  12.9km/h 92% 0in /  0.0mm 121 W/m2
12:01 40.3 °F /  4.6 °C 38.1 °F /  3.4 °C 30.5in /  1032.8hPa WNW 2.9mph /  4.7km/h 4mph /  6.4km/h 92% 0in /  0.0mm 135 W/m2
12:06 40.5 °F /  4.7 °C 38.3 °F /  3.5 °C 30.5in /  1032.8hPa WNW 6.9mph /  11.1km/h 11mph /  17.7km/h 92% 0in /  0.0mm 151 W/m2
12:11 40.5 °F /  4.7 °C 38.1 °F /  3.4 °C 30.5in /  1032.8hPa WSW 0.9mph /  1.4km/h 16mph /  25.7km/h 91% 0in /  0.0mm 139 W/m2
12:16 40.5 °F /  4.7 °C 38.1 °F /  3.4 °C 30.5in /  1032.8hPa West 6.9mph /  11.1km/h 10mph /  16.1km/h 91% 0in /  0.0mm 116 W/m2
12:21 40.6 °F /  4.8 °C 38.3 °F /  3.5 °C 30.5in /  1032.8hPa SW 4.9mph /  7.9km/h 11mph /  17.7km/h 91% 0in /  0.0mm 111 W/m2
12:26 40.6 °F /  4.8 °C 38.3 °F /  3.5 °C 30.5in /  1032.8hPa SW 4mph /  6.4km/h 7mph /  11.3km/h 91% 0in /  0.0mm 123 W/m2
12:31 40.6 °F /  4.8 °C 38.3 °F /  3.5 °C 30.5in /  1033.2hPa WSW 6mph /  9.7km/h 6mph /  9.7km/h 91% 0in /  0.0mm 118 W/m2
12:36 40.6 °F /  4.8 °C 37.9 °F /  3.3 °C 30.5in /  1033.2hPa West 4mph /  6.4km/h 10mph /  16.1km/h 90% 0in /  0.0mm 98 W/m2
12:41 40.6 °F /  4.8 °C 38.3 °F /  3.5 °C 30.5in /  1033.2hPa West 6mph /  9.7km/h 13mph /  20.9km/h 91% 0in /  0.0mm 123 W/m2
12:46 40.6 °F /  4.8 °C 37.9 °F /  3.3 °C 30.5in /  1033.2hPa West 6.9mph /  11.1km/h 10mph /  16.1km/h 90% 0in /  0.0mm 109 W/m2
12:51 40.6 °F /  4.8 °C 37.9 °F /  3.3 °C 30.5in /  1032.8hPa WNW 8.1mph /  13km/h 17mph /  27.4km/h 90% 0in /  0.0mm 98 W/m2
12:56 40.6 °F /  4.8 °C 37.9 °F /  3.3 °C 30.5in /  1032.8hPa WSW 4mph /  6.4km/h 9mph /  14.5km/h 90% 0in /  0.0mm 125 W/m2
13:01 40.8 °F /  4.9 °C 37.8 °F /  3.2 °C 30.5in /  1032.8hPa SW 2.9mph /  4.7km/h 14mph /  22.5km/h 89% 0in /  0.0mm 141 W/m2
13:06 40.8 °F /  4.9 °C 37.8 °F /  3.2 °C 30.5in /  1032.8hPa West 8.1mph /  13km/h 11mph /  17.7km/h 89% 0in /  0.0mm 98 W/m2
13:11 40.8 °F /  4.9 °C 37.8 °F /  3.2 °C 30.5in /  1032.8hPa West 10.1mph /  16.3km/h 13mph /  20.9km/h 89% 0in /  0.0mm 113 W/m2
13:16 40.8 °F /  4.9 °C 37.8 °F /  3.2 °C 30.5in /  1032.5hPa WNW 4.9mph /  7.9km/h 10mph /  16.1km/h 89% 0in /  0.0mm 123 W/m2
13:21 40.8 °F /  4.9 °C 37.8 °F /  3.2 °C 30.5in /  1032.5hPa West 10.1mph /  16.3km/h 18mph /  29km/h 89% 0in /  0.0mm 105 W/m2
13:26 40.8 °F /  4.9 °C 37.8 °F /  3.2 °C 30.5in /  1032.5hPa West 8.9mph /  14.3km/h 11mph /  17.7km/h 89% 0in /  0.0mm 107 W/m2
13:31 41 °F /  5 °C 37.9 °F /  3.3 °C 30.5in /  1032.2hPa WNW 4.9mph /  7.9km/h 15mph /  24.1km/h 89% 0in /  0.0mm 118 W/m2
13:36 41.2 °F /  5.1 °C 38.1 °F /  3.4 °C 30.5in /  1031.8hPa WNW 2.9mph /  4.7km/h 5mph /  8km/h 89% 0in /  0.0mm 137 W/m2
13:41 41.4 °F /  5.2 °C 38.3 °F /  3.5 °C 30.5in /  1032.2hPa WNW 2mph /  3.2km/h 8mph /  12.9km/h 89% 0in /  0.0mm 102 W/m2
13:46 41.5 °F /  5.3 °C 38.5 °F /  3.6 °C 30.5in /  1031.8hPa WNW 4.9mph /  7.9km/h 10mph /  16.1km/h 89% 0in /  0.0mm 114 W/m2
13:51 41.5 °F /  5.3 °C 38.5 °F /  3.6 °C 30.5in /  1032.2hPa West 2.9mph /  4.7km/h 4mph /  6.4km/h 89% 0in /  0.0mm 104 W/m2
13:56 41.7 °F /  5.4 °C 38.7 °F /  3.7 °C 30.5in /  1032.2hPa WNW 2mph /  3.2km/h 4mph /  6.4km/h 89% 0in /  0.0mm 98 W/m2
14:01 41.9 °F /  5.5 °C 38.8 °F /  3.8 °C 30.5in /  1031.8hPa WNW 6.9mph /  11.1km/h 9mph /  14.5km/h 89% 0in /  0.0mm 72 W/m2
14:06 41.7 °F /  5.4 °C 38.5 °F /  3.6 °C 30.5in /  1031.8hPa West 6mph /  9.7km/h 8mph /  12.9km/h 88% 0in /  0.0mm 91 W/m2
14:11 41.7 °F /  5.4 °C 38.5 °F /  3.6 °C 30.5in /  1032.2hPa WNW 6.9mph /  11.1km/h 13mph /  20.9km/h 88% 0in /  0.0mm 95 W/m2
14:16 41.7 °F /  5.4 °C 38.5 °F /  3.6 °C 30.5in /  1032.2hPa WSW 2.9mph /  4.7km/h 9mph /  14.5km/h 88% 0in /  0.0mm 98 W/m2
14:21 41.9 °F /  5.5 °C 38.7 °F /  3.7 °C 30.5in /  1032.2hPa NW 4.9mph /  7.9km/h 7mph /  11.3km/h 88% 0in /  0.0mm 79 W/m2
14:26 41.9 °F /  5.5 °C 38.7 °F /  3.7 °C 30.5in /  1032.2hPa Calm   6mph /  9.7km/h 88% 0in /  0.0mm 54 W/m2
14:31 41.7 °F /  5.4 °C 38.1 °F /  3.4 °C 30.5in /  1032.2hPa NW 13mph /  20.9km/h 13mph /  20.9km/h 87% 0in /  0.0mm 56 W/m2
14:36 41.7 °F /  5.4 °C 38.1 °F /  3.4 °C 30.5in /  1032.2hPa West 6mph /  9.7km/h 7mph /  11.3km/h 87% 0in /  0.0mm 67 W/m2
14:41 41.7 °F /  5.4 °C 38.1 °F /  3.4 °C 30.5in /  1032.2hPa West 11mph /  17.7km/h 15mph /  24.1km/h 87% 0in /  0.0mm 76 W/m2
14:46 41.7 °F /  5.4 °C 38.1 °F /  3.4 °C 30.5in /  1032.2hPa SW 8.9mph /  14.3km/h 11mph /  17.7km/h 87% 0in /  0.0mm 91 W/m2
14:51 41.7 °F /  5.4 °C 38.1 °F /  3.4 °C 30.5in /  1032.2hPa WNW 6.9mph /  11.1km/h 13mph /  20.9km/h 87% 0in /  0.0mm 81 W/m2
14:57 41.9 °F /  5.5 °C 38.3 °F /  3.5 °C 30.5in /  1032.5hPa SW 8.9mph /  14.3km/h 11mph /  17.7km/h 87% 0in /  0.0mm 54 W/m2
15:02 42.1 °F /  5.6 °C 38.5 °F /  3.6 °C 30.5in /  1032.5hPa Calm   2mph /  3.2km/h 87% 0in /  0.0mm 39 W/m2
15:07 42.1 °F /  5.6 °C 38.5 °F /  3.6 °C 30.5in /  1032.5hPa WSW 2.9mph /  4.7km/h 10mph /  16.1km/h 87% 0in /  0.0mm 28 W/m2
15:12 42.1 °F /  5.6 °C 38.8 °F /  3.8 °C 30.5in /  1032.5hPa WNW 2mph /  3.2km/h 6mph /  9.7km/h 88% 0in /  0.0mm 47 W/m2
15:17 42.1 °F /  5.6 °C 38.8 °F /  3.8 °C 30.5in /  1032.8hPa Calm   7mph /  11.3km/h 88% 0in /  0.0mm 53 W/m2
15:22 42.1 °F /  5.6 °C 38.8 °F /  3.8 °C 30.5in /  1032.5hPa WSW 2.9mph /  4.7km/h 10mph /  16.1km/h 88% 0in /  0.0mm 47 W/m2
15:27 42.1 °F /  5.6 °C 38.8 °F /  3.8 °C 30.5in /  1032.8hPa WNW 6.9mph /  11.1km/h 12mph /  19.3km/h 88% 0in /  0.0mm 40 W/m2
15:32 42.1 °F /  5.6 °C 38.5 °F /  3.6 °C 30.5in /  1032.5hPa West 8.9mph /  14.3km/h 10mph /  16.1km/h 87% 0in /  0.0mm 56 W/m2
15:37 42.1 °F /  5.6 °C 38.5 °F /  3.6 °C 30.5in /  1032.5hPa WNW 0.9mph /  1.4km/h 11mph /  17.7km/h 87% 0in /  0.0mm 37 W/m2
15:42 42.1 °F /  5.6 °C 38.8 °F /  3.8 °C 30.5in /  1032.8hPa WNW 2.9mph /  4.7km/h 7mph /  11.3km/h 88% 0in /  0.0mm 32 W/m2
15:47 42.1 °F /  5.6 °C 38.8 °F /  3.8 °C 30.5in /  1032.5hPa WNW 4.9mph /  7.9km/h 11mph /  17.7km/h 88% 0in /  0.0mm 30 W/m2
15:52 42.1 °F /  5.6 °C 38.8 °F /  3.8 °C 30.5in /  1032.5hPa WNW 4.9mph /  7.9km/h 6mph /  9.7km/h 88% 0in /  0.0mm 16 W/m2
15:57 42.1 °F /  5.6 °C 38.8 °F /  3.8 °C 30.5in /  1032.5hPa WNW 4.9mph /  7.9km/h 10mph /  16.1km/h 88% 0in /  0.0mm 25 W/m2
16:02 42.1 °F /  5.6 °C 38.8 °F /  3.8 °C 30.5in /  1032.5hPa WNW 2mph /  3.2km/h 3mph /  4.8km/h 88% 0in /  0.0mm 18 W/m2
16:07 42.1 °F /  5.6 °C 38.8 °F /  3.8 °C 30.5in /  1032.5hPa West 2mph /  3.2km/h 10mph /  16.1km/h 88% 0in /  0.0mm 9 W/m2
16:12 42.1 °F /  5.6 °C 38.8 °F /  3.8 °C 30.5in /  1032.5hPa NW 4mph /  6.4km/h 10mph /  16.1km/h 88% 0in /  0.0mm 12 W/m2
16:17 42.1 °F /  5.6 °C 39 °F /  3.9 °C 30.5in /  1032.5hPa Calm   7mph /  11.3km/h 89% 0in /  0.0mm 12 W/m2
16:22 42.1 °F /  5.6 °C 39 °F /  3.9 °C 30.5in /  1032.5hPa West 2.9mph /  4.7km/h 10mph /  16.1km/h 89% 0in /  0.0mm 11 W/m2
16:27 41.9 °F /  5.5 °C 38.8 °F /  3.8 °C 30.5in /  1032.5hPa WNW 2.9mph /  4.7km/h 5mph /  8km/h 89% 0in /  0.0mm 11 W/m2
16:32 41.9 °F /  5.5 °C 38.8 °F /  3.8 °C 30.5in /  1032.5hPa West 0.9mph /  1.4km/h 4mph /  6.4km/h 89% 0in /  0.0mm 7 W/m2
16:37 41.9 °F /  5.5 °C 38.8 °F /  3.8 °C 30.5in /  1032.5hPa West 2mph /  3.2km/h 5mph /  8km/h 89% 0in /  0.0mm 7 W/m2
16:42 41.7 °F /  5.4 °C 38.7 °F /  3.7 °C 30.5in /  1032.8hPa WNW 2.9mph /  4.7km/h 6mph /  9.7km/h 89% 0in /  0.0mm 0 W/m2
16:47 41.9 °F /  5.5 °C 38.8 °F /  3.8 °C 30.5in /  1032.8hPa West 2.9mph /  4.7km/h 5mph /  8km/h 89% 0in /  0.0mm 0 W/m2
16:52 41.9 °F /  5.5 °C 38.8 °F /  3.8 °C 30.5in /  1032.8hPa Calm   6mph /  9.7km/h 89% 0in /  0.0mm 0 W/m2
16:57 41.9 °F /  5.5 °C 38.8 °F /  3.8 °C 30.5in /  1032.8hPa Calm   5mph /  8km/h 89% 0in /  0.0mm 0 W/m2
17:02 41.9 °F /  5.5 °C 38.8 °F /  3.8 °C 30.5in /  1032.8hPa West 2mph /  3.2km/h 6mph /  9.7km/h 89% 0in /  0.0mm 0 W/m2
17:07 41.9 °F /  5.5 °C 39.2 °F /  4 °C 30.5in /  1032.8hPa WNW 4mph /  6.4km/h 8mph /  12.9km/h 90% 0in /  0.0mm 0 W/m2
17:13 41.9 °F /  5.5 °C 39.2 °F /  4 °C 30.5in /  1032.8hPa West 2.9mph /  4.7km/h 3mph /  4.8km/h 90% 0in /  0.0mm 0 W/m2
17:18 41.7 °F /  5.4 °C 39 °F /  3.9 °C 30.5in /  1032.8hPa West 0.9mph /  1.4km/h 1mph /  1.6km/h 90% 0in /  0.0mm 0 W/m2
17:23 41.7 °F /  5.4 °C 39 °F /  3.9 °C 30.5in /  1032.8hPa Calm     90% 0in /  0.0mm 0 W/m2
17:28 41.7 °F /  5.4 °C 39 °F /  3.9 °C 30.5in /  1032.8hPa WNW 2mph /  3.2km/h 3mph /  4.8km/h 90% 0in /  0.0mm 0 W/m2
17:33 41.9 °F /  5.5 °C 39.2 °F /  4 °C 30.5in /  1032.8hPa Calm   4mph /  6.4km/h 90% 0in /  0.0mm 0 W/m2
17:38 41.9 °F /  5.5 °C 39.2 °F /  4 °C 30.5in /  1032.8hPa Calm     90% 0in /  0.0mm 0 W/m2
17:43 41.7 °F /  5.4 °C 39 °F /  3.9 °C 30.5in /  1033.2hPa Calm     90% 0in /  0.0mm 0 W/m2
17:48 41.7 °F /  5.4 °C 39 °F /  3.9 °C 30.5in /  1033.2hPa Calm     90% 0in /  0.0mm 0 W/m2
17:53 41.7 °F /  5.4 °C 39 °F /  3.9 °C 30.5in /  1033.2hPa Calm     90% 0in /  0.0mm 0 W/m2
17:58 41.7 °F /  5.4 °C 39 °F /  3.9 °C 30.5in /  1033.2hPa Calm     90% 0in /  0.0mm 0 W/m2
18:03 41.5 °F /  5.3 °C 39.2 °F /  4 °C 30.5in /  1033.2hPa WSW 2.9mph /  4.7km/h 5mph /  8km/h 91% 0in /  0.0mm 0 W/m2
18:08 41.7 °F /  5.4 °C 39.2 °F /  4 °C 30.5in /  1033.2hPa Calm     91% 0in /  0.0mm 0 W/m2
18:13 41.7 °F /  5.4 °C 39.2 °F /  4 °C 30.5in /  1033.2hPa SW 4.9mph /  7.9km/h 7mph /  11.3km/h 91% 0in /  0.0mm 0 W/m2
18:18 42.1 °F /  5.6 °C 39.6 °F /  4.2 °C 30.5in /  1033.5hPa SW 4.9mph /  7.9km/h 5mph /  8km/h 91% 0in /  0.0mm 0 W/m2
18:23 42.1 °F /  5.6 °C 39.6 °F /  4.2 °C 30.5in /  1033.5hPa Calm   7mph /  11.3km/h 91% 0in /  0.0mm 0 W/m2
18:28 42.3 °F /  5.7 °C 39.7 °F /  4.3 °C 30.5in /  1033.5hPa WSW 2.9mph /  4.7km/h 9mph /  14.5km/h 91% 0in /  0.0mm 0 W/m2
18:33 42.3 °F /  5.7 °C 39.6 °F /  4.2 °C 30.5in /  1033.5hPa West 2.9mph /  4.7km/h 4mph /  6.4km/h 90% 0in /  0.0mm 0 W/m2
18:38 42.3 °F /  5.7 °C 39.6 °F /  4.2 °C 30.5in /  1033.5hPa Calm   9mph /  14.5km/h 90% 0in /  0.0mm 0 W/m2
18:43 42.4 °F /  5.8 °C 39.7 °F /  4.3 °C 30.5in /  1033.5hPa West 2.9mph /  4.7km/h 4mph /  6.4km/h 90% 0in /  0.0mm 0 W/m2
18:49 42.4 °F /  5.8 °C 39.7 °F /  4.3 °C 30.5in /  1033.5hPa WSW 2.9mph /  4.7km/h 7mph /  11.3km/h 90% 0in /  0.0mm 0 W/m2
18:54 42.4 °F /  5.8 °C 39.4 °F /  4.1 °C 30.5in /  1033.5hPa WSW 0.9mph /  1.4km/h 7mph /  11.3km/h 89% 0in /  0.0mm 0 W/m2
18:59 42.6 °F /  5.9 °C 39.6 °F /  4.2 °C 30.5in /  1033.5hPa Calm   4mph /  6.4km/h 89% 0in /  0.0mm 0 W/m2
19:04 42.6 °F /  5.9 °C 39.6 °F /  4.2 °C 30.5in /  1033.5hPa West 0.9mph /  1.4km/h 5mph /  8km/h 89% 0in /  0.0mm 0 W/m2
19:09 42.6 °F /  5.9 °C 39.6 °F /  4.2 °C 30.5in /  1033.5hPa WSW 2.9mph /  4.7km/h 7mph /  11.3km/h 89% 0in /  0.0mm 0 W/m2
19:14 42.6 °F /  5.9 °C 39.4 °F /  4.1 °C 30.5in /  1033.5hPa WSW 2.9mph /  4.7km/h 4mph /  6.4km/h 88% 0in /  0.0mm 0 W/m2
19:19 42.6 °F /  5.9 °C 39.4 °F /  4.1 °C 30.5in /  1033.5hPa West 4mph /  6.4km/h 7mph /  11.3km/h 88% 0in /  0.0mm 0 W/m2
19:24 42.6 °F /  5.9 °C 39.4 °F /  4.1 °C 30.5in /  1033.5hPa Calm   3mph /  4.8km/h 88% 0in /  0.0mm 0 W/m2
19:29 42.6 °F /  5.9 °C 39.4 °F /  4.1 °C 30.5in /  1033.5hPa WSW 8.1mph /  13km/h 9mph /  14.5km/h 88% 0in /  0.0mm 0 W/m2
19:34 42.6 °F /  5.9 °C 39.4 °F /  4.1 °C 30.5in /  1033.9hPa WSW 4mph /  6.4km/h 8mph /  12.9km/h 88% 0in /  0.0mm 0 W/m2
19:39 42.6 °F /  5.9 °C 39.4 °F /  4.1 °C 30.5in /  1033.9hPa Calm   4mph /  6.4km/h 88% 0in /  0.0mm 0 W/m2
19:44 42.6 °F /  5.9 °C 39.4 °F /  4.1 °C 30.5in /  1033.9hPa West 0.9mph /  1.4km/h 6mph /  9.7km/h 88% 0in /  0.0mm 0 W/m2
19:49 42.6 °F /  5.9 °C 39.6 °F /  4.2 °C 30.5in /  1033.9hPa West 2.9mph /  4.7km/h 7mph /  11.3km/h 89% 0in /  0.0mm 0 W/m2
19:54 42.6 °F /  5.9 °C 39.6 °F /  4.2 °C 30.5in /  1033.9hPa Calm   6mph /  9.7km/h 89% 0in /  0.0mm 0 W/m2
19:59 42.6 °F /  5.9 °C 39.6 °F /  4.2 °C 30.5in /  1033.9hPa West 4mph /  6.4km/h 4mph /  6.4km/h 89% 0in /  0.0mm 0 W/m2
20:04 42.6 °F /  5.9 °C 39.6 °F /  4.2 °C 30.5in /  1034.2hPa Calm   6mph /  9.7km/h 89% 0in /  0.0mm 0 W/m2
20:09 42.6 °F /  5.9 °C 39.6 °F /  4.2 °C 30.5in /  1034.2hPa Calm   2mph /  3.2km/h 89% 0in /  0.0mm 0 W/m2
20:14 42.4 °F /  5.8 °C 39.4 °F /  4.1 °C 30.5in /  1034.2hPa West 0.9mph /  1.4km/h 1mph /  1.6km/h 89% 0in /  0.0mm 0 W/m2
20:19 42.4 °F /  5.8 °C 39.4 °F /  4.1 °C 30.5in /  1034.2hPa WSW 0.9mph /  1.4km/h 4mph /  6.4km/h 89% 0in /  0.0mm 0 W/m2
20:24 42.4 °F /  5.8 °C 39.4 °F /  4.1 °C 30.5in /  1034.2hPa West 6mph /  9.7km/h 6mph /  9.7km/h 89% 0in /  0.0mm 0 W/m2
20:29 42.4 °F /  5.8 °C 39.4 °F /  4.1 °C 30.5in /  1034.2hPa Calm   6mph /  9.7km/h 89% 0in /  0.0mm 0 W/m2
20:34 42.4 °F /  5.8 °C 39.4 °F /  4.1 °C 30.6in /  1034.5hPa WNW 2.9mph /  4.7km/h 4mph /  6.4km/h 89% 0in /  0.0mm 0 W/m2
20:39 42.4 °F /  5.8 °C 39.4 °F /  4.1 °C 30.6in /  1034.5hPa WSW 2mph /  3.2km/h 10mph /  16.1km/h 89% 0in /  0.0mm 0 W/m2
20:44 42.6 °F /  5.9 °C 39.6 °F /  4.2 °C 30.6in /  1034.5hPa WSW 6.9mph /  11.1km/h 8mph /  12.9km/h 89% 0in /  0.0mm 0 W/m2
20:49 42.6 °F /  5.9 °C 39.6 °F /  4.2 °C 30.6in /  1034.5hPa WNW 4.9mph /  7.9km/h 7mph /  11.3km/h 89% 0in /  0.0mm 0 W/m2
20:54 42.6 °F /  5.9 °C 39.6 °F /  4.2 °C 30.6in /  1034.5hPa SW 4mph /  6.4km/h 8mph /  12.9km/h 89% 0in /  0.0mm 0 W/m2
20:59 42.6 °F /  5.9 °C 39.6 °F /  4.2 °C 30.6in /  1034.5hPa WNW 2.9mph /  4.7km/h 3mph /  4.8km/h 89% 0in /  0.0mm 0 W/m2
21:04 42.6 °F /  5.9 °C 39.6 °F /  4.2 °C 30.6in /  1034.5hPa West 6.9mph /  11.1km/h 11mph /  17.7km/h 89% 0in /  0.0mm 0 W/m2
21:09 42.6 °F /  5.9 °C 39.6 °F /  4.2 °C 30.6in /  1034.5hPa WSW 6.9mph /  11.1km/h 9mph /  14.5km/h 89% 0in /  0.0mm 0 W/m2
21:14 42.6 °F /  5.9 °C 39.6 °F /  4.2 °C 30.6in /  1034.5hPa WSW 4mph /  6.4km/h 10mph /  16.1km/h 89% 0in /  0.0mm 0 W/m2
21:19 42.6 °F /  5.9 °C 39.6 °F /  4.2 °C 30.6in /  1034.5hPa WSW 4.9mph /  7.9km/h 7mph /  11.3km/h 89% 0in /  0.0mm 0 W/m2
21:24 42.6 °F /  5.9 °C 39.6 °F /  4.2 °C 30.5in /  1034.2hPa WNW 6mph /  9.7km/h 10mph /  16.1km/h 89% 0in /  0.0mm 0 W/m2
21:29 42.6 °F /  5.9 °C 39.6 °F /  4.2 °C 30.6in /  1034.5hPa West 2mph /  3.2km/h 9mph /  14.5km/h 89% 0in /  0.0mm 0 W/m2
21:34 42.4 °F /  5.8 °C 39.4 °F /  4.1 °C 30.6in /  1034.5hPa West 6mph /  9.7km/h 11mph /  17.7km/h 89% 0in /  0.0mm 0 W/m2
21:39 42.4 °F /  5.8 °C 39.4 °F /  4.1 °C 30.6in /  1034.5hPa WSW 2.9mph /  4.7km/h 9mph /  14.5km/h 89% 0in /  0.0mm 0 W/m2
21:44 42.4 °F /  5.8 °C 39.4 °F /  4.1 °C 30.5in /  1034.2hPa SW 2.9mph /  4.7km/h 10mph /  16.1km/h 89% 0in /  0.0mm 0 W/m2
21:49 42.4 °F /  5.8 °C 39.4 °F /  4.1 °C 30.5in /  1034.2hPa WSW 4.9mph /  7.9km/h 9mph /  14.5km/h 89% 0in /  0.0mm 0 W/m2
21:54 42.4 °F /  5.8 °C 39.4 °F /  4.1 °C 30.6in /  1034.5hPa West 6mph /  9.7km/h 13mph /  20.9km/h 89% 0in /  0.0mm 0 W/m2
21:59 42.4 °F /  5.8 °C 39.4 °F /  4.1 °C 30.6in /  1034.5hPa West 8.1mph /  13km/h 10mph /  16.1km/h 89% 0in /  0.0mm 0 W/m2
22:04 42.4 °F /  5.8 °C 39.4 °F /  4.1 °C 30.6in /  1034.5hPa SW 8.1mph /  13km/h 12mph /  19.3km/h 89% 0in /  0.0mm 0 W/m2
22:09 42.4 °F /  5.8 °C 39.4 °F /  4.1 °C 30.6in /  1034.5hPa West 8.1mph /  13km/h 10mph /  16.1km/h 89% 0in /  0.0mm 0 W/m2
22:14 42.4 °F /  5.8 °C 39.4 °F /  4.1 °C 30.6in /  1034.5hPa WSW 11mph /  17.7km/h 14mph /  22.5km/h 89% 0in /  0.0mm 0 W/m2
22:19 42.4 °F /  5.8 °C 39.4 °F /  4.1 °C 30.6in /  1034.5hPa WSW 8.1mph /  13km/h 9mph /  14.5km/h 89% 0in /  0.0mm 0 W/m2
22:24 42.3 °F /  5.7 °C 39.2 °F /  4 °C 30.6in /  1034.5hPa WSW 4.9mph /  7.9km/h 14mph /  22.5km/h 89% 0in /  0.0mm 0 W/m2
22:29 42.3 °F /  5.7 °C 39.6 °F /  4.2 °C 30.6in /  1034.5hPa West 2.9mph /  4.7km/h 5mph /  8km/h 90% 0in /  0.0mm 0 W/m2
22:34 42.1 °F /  5.6 °C 39.4 °F /  4.1 °C 30.6in /  1034.9hPa WSW 4mph /  6.4km/h 11mph /  17.7km/h 90% 0in /  0.0mm 0 W/m2
22:39 42.1 °F /  5.6 °C 39.4 °F /  4.1 °C 30.6in /  1034.9hPa WSW 4.9mph /  7.9km/h 7mph /  11.3km/h 90% 0in /  0.0mm 0 W/m2
22:44 42.1 °F /  5.6 °C 39.4 °F /  4.1 °C 30.6in /  1034.9hPa West 6mph /  9.7km/h 10mph /  16.1km/h 90% 0in /  0.0mm 0 W/m2
22:49 42.1 °F /  5.6 °C 39.4 °F /  4.1 °C 30.6in /  1034.5hPa WSW 6.9mph /  11.1km/h 8mph /  12.9km/h 90% 0in /  0.0mm 0 W/m2
22:54 42.1 °F /  5.6 °C 39.4 °F /  4.1 °C 30.6in /  1034.9hPa West 4mph /  6.4km/h 10mph /  16.1km/h 90% 0in /  0.0mm 0 W/m2
22:59 42.1 °F /  5.6 °C 39.4 °F /  4.1 °C 30.6in /  1034.5hPa West 6mph /  9.7km/h 9mph /  14.5km/h 90% 0in /  0.0mm 0 W/m2
23:04 41.9 °F /  5.5 °C 39.4 °F /  4.1 °C 30.6in /  1034.9hPa SW 4.9mph /  7.9km/h 10mph /  16.1km/h 91% 0in /  0.0mm 0 W/m2
23:09 41.9 °F /  5.5 °C 39.4 °F /  4.1 °C 30.6in /  1034.9hPa West 10.1mph /  16.3km/h 12mph /  19.3km/h 91% 0in /  0.0mm 0 W/m2
23:14 41.9 °F /  5.5 °C 39.4 °F /  4.1 °C 30.6in /  1034.9hPa SW 6mph /  9.7km/h 8mph /  12.9km/h 91% 0in /  0.0mm 0 W/m2
23:19 41.9 °F /  5.5 °C 39.4 °F /  4.1 °C 30.6in /  1035.2hPa WSW 8.1mph /  13km/h 11mph /  17.7km/h 91% 0in /  0.0mm 0 W/m2
23:24 42.1 °F /  5.6 °C 39.6 °F /  4.2 °C 30.6in /  1035.2hPa WSW 4.9mph /  7.9km/h 10mph /  16.1km/h 91% 0in /  0.0mm 0 W/m2
23:30 42.1 °F /  5.6 °C 39.6 °F /  4.2 °C 30.6in /  1035.6hPa West 4mph /  6.4km/h 12mph /  19.3km/h 91% 0in /  0.0mm 0 W/m2
23:35 42.1 °F /  5.6 °C 39.6 °F /  4.2 °C 30.6in /  1035.6hPa West 11mph /  17.7km/h 12mph /  19.3km/h 91% 0in /  0.0mm 0 W/m2
23:40 42.1 °F /  5.6 °C 39.6 °F /  4.2 °C 30.6in /  1035.2hPa WSW 6.9mph /  11.1km/h 7mph /  11.3km/h 91% 0in /  0.0mm 0 W/m2
23:45 42.1 °F /  5.6 °C 39.6 °F /  4.2 °C 30.6in /  1035.2hPa West 4mph /  6.4km/h 8mph /  12.9km/h 91% 0in /  0.0mm 0 W/m2
23:50 41.9 °F /  5.5 °C 39.4 °F /  4.1 °C 30.6in /  1035.6hPa WNW 8.1mph /  13km/h 8mph /  12.9km/h 91% 0in /  0.0mm 0 W/m2
23:55 41.9 °F /  5.5 °C 39.4 °F /  4.1 °C 30.6in /  1035.2hPa WSW 10.1mph /  16.3km/h 12mph /  19.3km/h 91% 0in /  0.0mm 0 W/m2
Juneau County Weather
Compliments of Weather Underground - 4 mb